sensor_id;sensor_type;location;lat;lon;timestamp;P1;durP1;ratioP1;P2;durP2;ratioP2
58091;SDS011;43896;48.178;11.578;2023-05-07T00:01:06;9.98;;;6.45;;
58091;SDS011;43896;48.178;11.578;2023-05-07T00:03:32;8.95;;;6.30;;
58091;SDS011;43896;48.178;11.578;2023-05-07T00:05:58;9.68;;;6.30;;
58091;SDS011;43896;48.178;11.578;2023-05-07T00:08:23;10.65;;;6.47;;
58091;SDS011;43896;48.178;11.578;2023-05-07T00:10:51;9.80;;;6.75;;
58091;SDS011;43896;48.178;11.578;2023-05-07T00:13:16;10.68;;;6.72;;
58091;SDS011;43896;48.178;11.578;2023-05-07T00:15:41;11.10;;;7.22;;
58091;SDS011;43896;48.178;11.578;2023-05-07T00:18:07;11.23;;;7.20;;
58091;SDS011;43896;48.178;11.578;2023-05-07T00:20:32;10.82;;;7.13;;
58091;SDS011;43896;48.178;11.578;2023-05-07T00:22:57;11.10;;;7.60;;
58091;SDS011;43896;48.178;11.578;2023-05-07T00:25:23;10.98;;;7.50;;
58091;SDS011;43896;48.178;11.578;2023-05-07T00:27:48;11.02;;;7.13;;
58091;SDS011;43896;48.178;11.578;2023-05-07T00:30:13;10.52;;;7.13;;
58091;SDS011;43896;48.178;11.578;2023-05-07T00:32:39;12.30;;;7.78;;
58091;SDS011;43896;48.178;11.578;2023-05-07T00:35:05;11.02;;;7.35;;
58091;SDS011;43896;48.178;11.578;2023-05-07T00:37:31;10.90;;;6.72;;
58091;SDS011;43896;48.178;11.578;2023-05-07T00:39:56;10.02;;;7.03;;
58091;SDS011;43896;48.178;11.578;2023-05-07T00:42:22;10.55;;;6.88;;
58091;SDS011;43896;48.178;11.578;2023-05-07T00:44:47;11.68;;;7.70;;
58091;SDS011;43896;48.178;11.578;2023-05-07T00:47:12;11.30;;;7.53;;
58091;SDS011;43896;48.178;11.578;2023-05-07T00:49:39;11.73;;;7.15;;
58091;SDS011;43896;48.178;11.578;2023-05-07T00:52:07;10.45;;;7.50;;
58091;SDS011;43896;48.178;11.578;2023-05-07T00:54:36;11.40;;;7.80;;
58091;SDS011;43896;48.178;11.578;2023-05-07T00:57:02;11.48;;;7.40;;
58091;SDS011;43896;48.178;11.578;2023-05-07T00:59:28;11.40;;;7.32;;
58091;SDS011;43896;48.178;11.578;2023-05-07T01:01:54;10.43;;;7.38;;
58091;SDS011;43896;48.178;11.578;2023-05-07T01:04:19;11.45;;;7.85;;
58091;SDS011;43896;48.178;11.578;2023-05-07T01:06:45;11.63;;;7.57;;
58091;SDS011;43896;48.178;11.578;2023-05-07T01:09:11;13.13;;;7.45;;
58091;SDS011;43896;48.178;11.578;2023-05-07T01:11:37;9.98;;;7.05;;
58091;SDS011;43896;48.178;11.578;2023-05-07T01:14:04;10.57;;;7.45;;
58091;SDS011;43896;48.178;11.578;2023-05-07T01:16:30;11.65;;;7.72;;
58091;SDS011;43896;48.178;11.578;2023-05-07T01:18:56;11.77;;;7.65;;
58091;SDS011;43896;48.178;11.578;2023-05-07T01:21:24;10.10;;;7.32;;
58091;SDS011;43896;48.178;11.578;2023-05-07T01:26:17;10.85;;;7.30;;
58091;SDS011;43896;48.178;11.578;2023-05-07T01:28:44;12.27;;;7.10;;
58091;SDS011;43896;48.178;11.578;2023-05-07T01:31:10;12.82;;;7.53;;
58091;SDS011;43896;48.178;11.578;2023-05-07T01:33:37;10.85;;;7.18;;
58091;SDS011;43896;48.178;11.578;2023-05-07T01:36:03;9.60;;;6.90;;
58091;SDS011;43896;48.178;11.578;2023-05-07T01:38:33;10.30;;;7.07;;
58091;SDS011;43896;48.178;11.578;2023-05-07T01:41:01;10.38;;;6.88;;
58091;SDS011;43896;48.178;11.578;2023-05-07T01:43:27;9.70;;;6.70;;
58091;SDS011;43896;48.178;11.578;2023-05-07T01:45:54;10.88;;;6.90;;
58091;SDS011;43896;48.178;11.578;2023-05-07T01:48:20;12.10;;;7.00;;
58091;SDS011;43896;48.178;11.578;2023-05-07T01:50:46;10.82;;;7.30;;
58091;SDS011;43896;48.178;11.578;2023-05-07T01:53:12;9.88;;;7.40;;
58091;SDS011;43896;48.178;11.578;2023-05-07T01:55:37;9.95;;;7.13;;
58091;SDS011;43896;48.178;11.578;2023-05-07T01:58:03;9.10;;;6.78;;
58091;SDS011;43896;48.178;11.578;2023-05-07T02:00:29;9.23;;;6.70;;
58091;SDS011;43896;48.178;11.578;2023-05-07T02:02:54;8.48;;;6.80;;
58091;SDS011;43896;48.178;11.578;2023-05-07T02:05:20;9.20;;;6.82;;
58091;SDS011;43896;48.178;11.578;2023-05-07T02:07:45;8.90;;;6.95;;
58091;SDS011;43896;48.178;11.578;2023-05-07T02:10:11;9.25;;;6.95;;
58091;SDS011;43896;48.178;11.578;2023-05-07T02:12:36;9.10;;;6.60;;
58091;SDS011;43896;48.178;11.578;2023-05-07T02:15:02;8.95;;;6.57;;
58091;SDS011;43896;48.178;11.578;2023-05-07T02:17:27;8.98;;;7.07;;
58091;SDS011;43896;48.178;11.578;2023-05-07T02:19:56;8.80;;;6.97;;
58091;SDS011;43896;48.178;11.578;2023-05-07T02:22:22;10.48;;;7.82;;
58091;SDS011;43896;48.178;11.578;2023-05-07T02:24:47;9.77;;;6.85;;
58091;SDS011;43896;48.178;11.578;2023-05-07T02:27:12;8.75;;;6.70;;
58091;SDS011;43896;48.178;11.578;2023-05-07T02:29:38;8.57;;;6.82;;
58091;SDS011;43896;48.178;11.578;2023-05-07T02:32:03;9.02;;;6.40;;
58091;SDS011;43896;48.178;11.578;2023-05-07T02:34:29;8.93;;;6.70;;
58091;SDS011;43896;48.178;11.578;2023-05-07T02:36:54;9.00;;;6.60;;
58091;SDS011;43896;48.178;11.578;2023-05-07T02:39:20;9.82;;;7.18;;
58091;SDS011;43896;48.178;11.578;2023-05-07T02:41:46;8.82;;;6.80;;
58091;SDS011;43896;48.178;11.578;2023-05-07T02:44:11;9.23;;;6.65;;
58091;SDS011;43896;48.178;11.578;2023-05-07T02:46:36;9.10;;;6.25;;
58091;SDS011;43896;48.178;11.578;2023-05-07T02:49:02;7.88;;;6.50;;
58091;SDS011;43896;48.178;11.578;2023-05-07T02:51:27;9.68;;;6.25;;
58091;SDS011;43896;48.178;11.578;2023-05-07T02:53:52;8.77;;;6.43;;
58091;SDS011;43896;48.178;11.578;2023-05-07T02:56:18;8.05;;;6.35;;
58091;SDS011;43896;48.178;11.578;2023-05-07T02:58:43;9.15;;;6.50;;
58091;SDS011;43896;48.178;11.578;2023-05-07T03:01:09;9.20;;;6.80;;
58091;SDS011;43896;48.178;11.578;2023-05-07T03:03:34;11.38;;;7.22;;
58091;SDS011;43896;48.178;11.578;2023-05-07T03:06:00;10.45;;;6.70;;
58091;SDS011;43896;48.178;11.578;2023-05-07T03:08:26;8.60;;;6.30;;
58091;SDS011;43896;48.178;11.578;2023-05-07T03:10:51;8.35;;;6.07;;
58091;SDS011;43896;48.178;11.578;2023-05-07T03:13:17;8.10;;;6.50;;
58091;SDS011;43896;48.178;11.578;2023-05-07T03:15:42;8.38;;;6.30;;
58091;SDS011;43896;48.178;11.578;2023-05-07T03:18:08;7.80;;;6.20;;
58091;SDS011;43896;48.178;11.578;2023-05-07T03:20:33;8.60;;;6.55;;
58091;SDS011;43896;48.178;11.578;2023-05-07T03:22:59;10.48;;;6.30;;
58091;SDS011;43896;48.178;11.578;2023-05-07T03:25:25;9.93;;;6.07;;
58091;SDS011;43896;48.178;11.578;2023-05-07T03:27:50;11.60;;;6.40;;
58091;SDS011;43896;48.178;11.578;2023-05-07T03:30:16;8.55;;;6.50;;
58091;SDS011;43896;48.178;11.578;2023-05-07T03:32:41;9.00;;;6.45;;
58091;SDS011;43896;48.178;11.578;2023-05-07T03:35:07;8.07;;;6.10;;
58091;SDS011;43896;48.178;11.578;2023-05-07T03:37:32;8.10;;;5.80;;
58091;SDS011;43896;48.178;11.578;2023-05-07T03:39:58;8.18;;;5.82;;
58091;SDS011;43896;48.178;11.578;2023-05-07T03:42:23;7.72;;;6.10;;
58091;SDS011;43896;48.178;11.578;2023-05-07T03:44:49;8.93;;;6.00;;
58091;SDS011;43896;48.178;11.578;2023-05-07T03:47:14;12.05;;;5.78;;
58091;SDS011;43896;48.178;11.578;2023-05-07T03:49:40;9.55;;;6.30;;
58091;SDS011;43896;48.178;11.578;2023-05-07T03:52:05;8.27;;;5.82;;
58091;SDS011;43896;48.178;11.578;2023-05-07T03:54:31;8.05;;;5.80;;
58091;SDS011;43896;48.178;11.578;2023-05-07T03:56:57;9.35;;;6.55;;
58091;SDS011;43896;48.178;11.578;2023-05-07T03:59:22;9.52;;;6.07;;
58091;SDS011;43896;48.178;11.578;2023-05-07T04:01:47;7.93;;;6.10;;
58091;SDS011;43896;48.178;11.578;2023-05-07T04:04:13;9.90;;;6.35;;
58091;SDS011;43896;48.178;11.578;2023-05-07T04:06:39;7.63;;;5.72;;
58091;SDS011;43896;48.178;11.578;2023-05-07T04:09:05;8.95;;;6.20;;
58091;SDS011;43896;48.178;11.578;2023-05-07T04:11:31;9.98;;;6.32;;
58091;SDS011;43896;48.178;11.578;2023-05-07T04:13:56;8.70;;;6.18;;
58091;SDS011;43896;48.178;11.578;2023-05-07T04:16:22;7.55;;;5.95;;
58091;SDS011;43896;48.178;11.578;2023-05-07T04:18:47;8.30;;;6.00;;
58091;SDS011;43896;48.178;11.578;2023-05-07T04:21:16;9.38;;;5.75;;
58091;SDS011;43896;48.178;11.578;2023-05-07T04:26:08;8.93;;;6.50;;
58091;SDS011;43896;48.178;11.578;2023-05-07T04:28:34;8.65;;;5.85;;
58091;SDS011;43896;48.178;11.578;2023-05-07T04:30:59;8.77;;;6.05;;
58091;SDS011;43896;48.178;11.578;2023-05-07T04:33:25;7.88;;;6.20;;
58091;SDS011;43896;48.178;11.578;2023-05-07T04:35:50;8.13;;;6.10;;
58091;SDS011;43896;48.178;11.578;2023-05-07T04:38:16;8.52;;;6.10;;
58091;SDS011;43896;48.178;11.578;2023-05-07T04:40:43;8.80;;;6.00;;
58091;SDS011;43896;48.178;11.578;2023-05-07T04:43:08;8.50;;;6.47;;
58091;SDS011;43896;48.178;11.578;2023-05-07T04:45:34;7.72;;;5.75;;
58091;SDS011;43896;48.178;11.578;2023-05-07T04:48:00;8.43;;;6.00;;
58091;SDS011;43896;48.178;11.578;2023-05-07T04:50:26;7.13;;;5.82;;
58091;SDS011;43896;48.178;11.578;2023-05-07T04:52:51;8.35;;;6.30;;
58091;SDS011;43896;48.178;11.578;2023-05-07T04:55:17;8.43;;;6.05;;
58091;SDS011;43896;48.178;11.578;2023-05-07T04:57:42;8.75;;;6.22;;
58091;SDS011;43896;48.178;11.578;2023-05-07T05:00:08;8.25;;;6.05;;
58091;SDS011;43896;48.178;11.578;2023-05-07T05:02:34;8.57;;;5.97;;
58091;SDS011;43896;48.178;11.578;2023-05-07T05:05:00;9.30;;;6.22;;
58091;SDS011;43896;48.178;11.578;2023-05-07T05:07:27;8.10;;;6.25;;
58091;SDS011;43896;48.178;11.578;2023-05-07T05:09:52;10.02;;;6.20;;
58091;SDS011;43896;48.178;11.578;2023-05-07T05:12:17;8.27;;;5.80;;
58091;SDS011;43896;48.178;11.578;2023-05-07T05:14:43;8.85;;;6.00;;
58091;SDS011;43896;48.178;11.578;2023-05-07T05:17:08;7.53;;;5.63;;
58091;SDS011;43896;48.178;11.578;2023-05-07T05:19:39;8.70;;;6.05;;
58091;SDS011;43896;48.178;11.578;2023-05-07T05:28:50;7.50;;;5.82;;
58091;SDS011;43896;48.178;11.578;2023-05-07T05:35:03;6.50;;;4.32;;
58091;SDS011;43896;48.178;11.578;2023-05-07T05:40:45;6.15;;;4.47;;
58091;SDS011;43896;48.178;11.578;2023-05-07T05:43:10;7.70;;;4.75;;
58091;SDS011;43896;48.178;11.578;2023-05-07T05:45:42;7.70;;;4.63;;
58091;SDS011;43896;48.178;11.578;2023-05-07T05:48:11;7.28;;;4.45;;
58091;SDS011;43896;48.178;11.578;2023-05-07T05:50:41;7.38;;;4.30;;
58091;SDS011;43896;48.178;11.578;2023-05-07T05:53:10;6.07;;;3.97;;
58091;SDS011;43896;48.178;11.578;2023-05-07T05:55:39;7.05;;;4.72;;
58091;SDS011;43896;48.178;11.578;2023-05-07T05:58:10;6.85;;;4.75;;
58091;SDS011;43896;48.178;11.578;2023-05-07T06:00:39;6.88;;;5.07;;
58091;SDS011;43896;48.178;11.578;2023-05-07T06:03:07;7.88;;;4.97;;
58091;SDS011;43896;48.178;11.578;2023-05-07T06:05:39;8.15;;;5.20;;
58091;SDS011;43896;48.178;11.578;2023-05-07T06:08:04;7.28;;;5.07;;
58091;SDS011;43896;48.178;11.578;2023-05-07T06:10:33;6.75;;;5.28;;
58091;SDS011;43896;48.178;11.578;2023-05-07T06:12:58;7.70;;;5.28;;
58091;SDS011;43896;48.178;11.578;2023-05-07T06:15:29;7.22;;;5.38;;
58091;SDS011;43896;48.178;11.578;2023-05-07T06:18:08;8.93;;;5.18;;
58091;SDS011;43896;48.178;11.578;2023-05-07T06:20:52;6.63;;;5.07;;
58091;SDS011;43896;48.178;11.578;2023-05-07T06:23:19;7.85;;;5.18;;
58091;SDS011;43896;48.178;11.578;2023-05-07T06:25:50;7.45;;;4.93;;
58091;SDS011;43896;48.178;11.578;2023-05-07T06:28:16;7.03;;;4.93;;
58091;SDS011;43896;48.178;11.578;2023-05-07T06:30:41;6.30;;;4.45;;
58091;SDS011;43896;48.178;11.578;2023-05-07T06:33:07;7.40;;;4.35;;
58091;SDS011;43896;48.178;11.578;2023-05-07T06:35:35;6.30;;;4.40;;
58091;SDS011;43896;48.178;11.578;2023-05-07T06:38:03;6.63;;;4.10;;
58091;SDS011;43896;48.178;11.578;2023-05-07T06:40:28;7.50;;;4.53;;
58091;SDS011;43896;48.178;11.578;2023-05-07T06:42:54;7.57;;;4.05;;
58091;SDS011;43896;48.178;11.578;2023-05-07T06:45:19;7.50;;;3.97;;
58091;SDS011;43896;48.178;11.578;2023-05-07T06:47:45;6.13;;;3.90;;
58091;SDS011;43896;48.178;11.578;2023-05-07T06:50:10;6.65;;;4.20;;
58091;SDS011;43896;48.178;11.578;2023-05-07T06:52:36;7.32;;;4.10;;
58091;SDS011;43896;48.178;11.578;2023-05-07T06:55:01;6.57;;;3.58;;
58091;SDS011;43896;48.178;11.578;2023-05-07T06:57:26;6.70;;;3.63;;
58091;SDS011;43896;48.178;11.578;2023-05-07T06:59:52;4.95;;;3.08;;
58091;SDS011;43896;48.178;11.578;2023-05-07T07:02:17;5.70;;;3.30;;
58091;SDS011;43896;48.178;11.578;2023-05-07T07:04:42;5.65;;;3.38;;
58091;SDS011;43896;48.178;11.578;2023-05-07T07:07:08;5.28;;;3.47;;
58091;SDS011;43896;48.178;11.578;2023-05-07T07:09:33;6.22;;;3.38;;
58091;SDS011;43896;48.178;11.578;2023-05-07T07:11:59;6.15;;;4.10;;
58091;SDS011;43896;48.178;11.578;2023-05-07T07:14:24;6.65;;;3.75;;
58091;SDS011;43896;48.178;11.578;2023-05-07T07:16:50;7.65;;;3.80;;
58091;SDS011;43896;48.178;11.578;2023-05-07T07:19:15;12.60;;;3.70;;
58091;SDS011;43896;48.178;11.578;2023-05-07T07:21:41;7.43;;;3.42;;
58091;SDS011;43896;48.178;11.578;2023-05-07T07:24:07;7.45;;;3.50;;
58091;SDS011;43896;48.178;11.578;2023-05-07T07:26:32;11.20;;;3.35;;
58091;SDS011;43896;48.178;11.578;2023-05-07T07:28:58;7.32;;;3.90;;
58091;SDS011;43896;48.178;11.578;2023-05-07T07:31:23;6.30;;;3.38;;
58091;SDS011;43896;48.178;11.578;2023-05-07T07:33:48;9.02;;;3.78;;
58091;SDS011;43896;48.178;11.578;2023-05-07T07:36:15;6.70;;;3.47;;
58091;SDS011;43896;48.178;11.578;2023-05-07T07:38:40;5.13;;;3.58;;
58091;SDS011;43896;48.178;11.578;2023-05-07T07:41:07;6.97;;;4.15;;
58091;SDS011;43896;48.178;11.578;2023-05-07T07:43:33;6.32;;;3.50;;
58091;SDS011;43896;48.178;11.578;2023-05-07T07:45:58;7.10;;;3.92;;
58091;SDS011;43896;48.178;11.578;2023-05-07T07:48:24;6.65;;;3.88;;
58091;SDS011;43896;48.178;11.578;2023-05-07T07:50:49;6.40;;;3.83;;
58091;SDS011;43896;48.178;11.578;2023-05-07T07:53:16;5.95;;;3.38;;
58091;SDS011;43896;48.178;11.578;2023-05-07T07:55:42;4.95;;;3.35;;
58091;SDS011;43896;48.178;11.578;2023-05-07T07:58:07;6.25;;;3.78;;
58091;SDS011;43896;48.178;11.578;2023-05-07T08:00:33;6.40;;;3.83;;
58091;SDS011;43896;48.178;11.578;2023-05-07T08:02:58;5.53;;;3.80;;
58091;SDS011;43896;48.178;11.578;2023-05-07T08:07:59;5.32;;;3.03;;
58091;SDS011;43896;48.178;11.578;2023-05-07T08:10:27;5.55;;;3.10;;
58091;SDS011;43896;48.178;11.578;2023-05-07T08:13:08;4.93;;;3.15;;
58091;SDS011;43896;48.178;11.578;2023-05-07T08:15:36;6.78;;;3.20;;
58091;SDS011;43896;48.178;11.578;2023-05-07T08:18:19;6.35;;;3.15;;
58091;SDS011;43896;48.178;11.578;2023-05-07T08:20:45;6.45;;;3.40;;
58091;SDS011;43896;48.178;11.578;2023-05-07T08:23:10;4.80;;;2.97;;
58091;SDS011;43896;48.178;11.578;2023-05-07T08:25:38;6.55;;;3.42;;
58091;SDS011;43896;48.178;11.578;2023-05-07T08:28:05;5.32;;;3.58;;
58091;SDS011;43896;48.178;11.578;2023-05-07T08:30:30;6.28;;;3.53;;
58091;SDS011;43896;48.178;11.578;2023-05-07T08:32:58;6.75;;;4.13;;
58091;SDS011;43896;48.178;11.578;2023-05-07T08:35:23;6.35;;;3.60;;
58091;SDS011;43896;48.178;11.578;2023-05-07T08:37:50;6.35;;;3.90;;
58091;SDS011;43896;48.178;11.578;2023-05-07T08:40:16;6.20;;;3.50;;
58091;SDS011;43896;48.178;11.578;2023-05-07T08:42:43;6.45;;;3.90;;
58091;SDS011;43896;48.178;11.578;2023-05-07T08:45:15;5.25;;;3.40;;
58091;SDS011;43896;48.178;11.578;2023-05-07T08:48:05;5.32;;;3.40;;
58091;SDS011;43896;48.178;11.578;2023-05-07T08:53:38;5.70;;;3.67;;
58091;SDS011;43896;48.178;11.578;2023-05-07T08:56:08;5.70;;;3.50;;
58091;SDS011;43896;48.178;11.578;2023-05-07T09:01:25;5.43;;;3.40;;
58091;SDS011;43896;48.178;11.578;2023-05-07T09:03:51;5.18;;;3.55;;
58091;SDS011;43896;48.178;11.578;2023-05-07T09:06:18;7.53;;;4.10;;
58091;SDS011;43896;48.178;11.578;2023-05-07T09:08:52;5.47;;;3.50;;
58091;SDS011;43896;48.178;11.578;2023-05-07T09:11:21;5.90;;;3.10;;
58091;SDS011;43896;48.178;11.578;2023-05-07T09:13:53;6.53;;;3.25;;
58091;SDS011;43896;48.178;11.578;2023-05-07T09:16:22;5.25;;;2.92;;
58091;SDS011;43896;48.178;11.578;2023-05-07T09:18:48;5.40;;;2.95;;
58091;SDS011;43896;48.178;11.578;2023-05-07T09:21:17;6.22;;;3.42;;
58091;SDS011;43896;48.178;11.578;2023-05-07T09:23:43;4.82;;;3.00;;
58091;SDS011;43896;48.178;11.578;2023-05-07T09:26:08;4.80;;;2.60;;
58091;SDS011;43896;48.178;11.578;2023-05-07T09:28:39;5.05;;;2.83;;
58091;SDS011;43896;48.178;11.578;2023-05-07T09:31:06;6.32;;;3.00;;
58091;SDS011;43896;48.178;11.578;2023-05-07T09:33:32;5.30;;;3.10;;
58091;SDS011;43896;48.178;11.578;2023-05-07T09:35:57;4.65;;;3.00;;
58091;SDS011;43896;48.178;11.578;2023-05-07T09:38:23;5.68;;;3.53;;
58091;SDS011;43896;48.178;11.578;2023-05-07T09:40:52;11.68;;;3.20;;
58091;SDS011;43896;48.178;11.578;2023-05-07T09:43:27;5.43;;;2.80;;
58091;SDS011;43896;48.178;11.578;2023-05-07T09:45:58;6.38;;;2.70;;
58091;SDS011;43896;48.178;11.578;2023-05-07T09:48:24;5.57;;;2.53;;
58091;SDS011;43896;48.178;11.578;2023-05-07T09:50:51;3.58;;;2.15;;
58091;SDS011;43896;48.178;11.578;2023-05-07T09:53:21;3.83;;;2.25;;
58091;SDS011;43896;48.178;11.578;2023-05-07T09:55:47;4.38;;;2.40;;
58091;SDS011;43896;48.178;11.578;2023-05-07T09:58:13;4.60;;;2.13;;
58091;SDS011;43896;48.178;11.578;2023-05-07T10:00:41;3.38;;;1.63;;
58091;SDS011;43896;48.178;11.578;2023-05-07T10:03:07;4.68;;;1.85;;
58091;SDS011;43896;48.178;11.578;2023-05-07T10:05:34;3.60;;;1.90;;
58091;SDS011;43896;48.178;11.578;2023-05-07T10:08:00;4.07;;;2.17;;
58091;SDS011;43896;48.178;11.578;2023-05-07T10:10:26;4.68;;;2.15;;
58091;SDS011;43896;48.178;11.578;2023-05-07T10:12:52;4.10;;;2.10;;
58091;SDS011;43896;48.178;11.578;2023-05-07T10:15:19;3.92;;;1.70;;
58091;SDS011;43896;48.178;11.578;2023-05-07T10:17:44;4.25;;;1.60;;
58091;SDS011;43896;48.178;11.578;2023-05-07T10:20:10;4.30;;;1.70;;
58091;SDS011;43896;48.178;11.578;2023-05-07T10:22:41;3.53;;;1.98;;
58091;SDS011;43896;48.178;11.578;2023-05-07T10:25:09;4.53;;;1.80;;
58091;SDS011;43896;48.178;11.578;2023-05-07T10:27:41;3.13;;;1.48;;
58091;SDS011;43896;48.178;11.578;2023-05-07T10:32:45;3.15;;;1.33;;
58091;SDS011;43896;48.178;11.578;2023-05-07T10:35:16;3.78;;;1.30;;
58091;SDS011;43896;48.178;11.578;2023-05-07T10:37:44;2.15;;;1.20;;
58091;SDS011;43896;48.178;11.578;2023-05-07T10:40:11;2.80;;;1.10;;
58091;SDS011;43896;48.178;11.578;2023-05-07T10:42:37;2.00;;;1.10;;
58091;SDS011;43896;48.178;11.578;2023-05-07T10:45:14;2.55;;;1.05;;
58091;SDS011;43896;48.178;11.578;2023-05-07T10:50:41;3.22;;;1.60;;
58091;SDS011;43896;48.178;11.578;2023-05-07T10:55:41;2.92;;;1.50;;
58091;SDS011;43896;48.178;11.578;2023-05-07T10:58:26;2.75;;;1.70;;
58091;SDS011;43896;48.178;11.578;2023-05-07T11:00:59;3.53;;;1.50;;
58091;SDS011;43896;48.178;11.578;2023-05-07T11:03:25;3.22;;;1.88;;
58091;SDS011;43896;48.178;11.578;2023-05-07T11:11:17;5.03;;;2.13;;
58091;SDS011;43896;48.178;11.578;2023-05-07T11:16:18;4.30;;;2.20;;
58091;SDS011;43896;48.178;11.578;2023-05-07T11:18:48;4.90;;;2.70;;
58091;SDS011;43896;48.178;11.578;2023-05-07T11:21:33;4.22;;;2.47;;
58091;SDS011;43896;48.178;11.578;2023-05-07T11:24:03;3.75;;;2.20;;
58091;SDS011;43896;48.178;11.578;2023-05-07T11:26:30;4.80;;;2.40;;
58091;SDS011;43896;48.178;11.578;2023-05-07T11:28:57;3.80;;;2.40;;
58091;SDS011;43896;48.178;11.578;2023-05-07T11:31:26;4.53;;;1.98;;
58091;SDS011;43896;48.178;11.578;2023-05-07T11:33:53;3.03;;;1.80;;
58091;SDS011;43896;48.178;11.578;2023-05-07T11:36:19;4.10;;;2.10;;
58091;SDS011;43896;48.178;11.578;2023-05-07T11:38:45;3.30;;;2.03;;
58091;SDS011;43896;48.178;11.578;2023-05-07T11:41:11;5.65;;;2.40;;
58091;SDS011;43896;48.178;11.578;2023-05-07T11:43:36;3.55;;;1.73;;
58091;SDS011;43896;48.178;11.578;2023-05-07T11:46:06;3.60;;;1.98;;
58091;SDS011;43896;48.178;11.578;2023-05-07T11:48:34;5.22;;;2.42;;
58091;SDS011;43896;48.178;11.578;2023-05-07T11:53:31;4.00;;;2.00;;
58091;SDS011;43896;48.178;11.578;2023-05-07T11:56:05;3.63;;;1.95;;
58091;SDS011;43896;48.178;11.578;2023-05-07T11:58:31;4.57;;;2.00;;
58091;SDS011;43896;48.178;11.578;2023-05-07T12:00:57;4.95;;;2.30;;
58091;SDS011;43896;48.178;11.578;2023-05-07T12:03:22;3.75;;;1.88;;
58091;SDS011;43896;48.178;11.578;2023-05-07T12:05:48;4.15;;;1.80;;
58091;SDS011;43896;48.178;11.578;2023-05-07T12:08:14;3.22;;;1.80;;
58091;SDS011;43896;48.178;11.578;2023-05-07T12:10:43;3.47;;;1.70;;
58091;SDS011;43896;48.178;11.578;2023-05-07T12:13:20;3.63;;;1.88;;
58091;SDS011;43896;48.178;11.578;2023-05-07T12:15:46;3.47;;;1.90;;
58091;SDS011;43896;48.178;11.578;2023-05-07T12:18:15;3.73;;;2.00;;
58091;SDS011;43896;48.178;11.578;2023-05-07T12:20:40;5.38;;;1.80;;
58091;SDS011;43896;48.178;11.578;2023-05-07T12:23:06;5.03;;;1.80;;
58091;SDS011;43896;48.178;11.578;2023-05-07T12:25:32;3.88;;;1.95;;
58091;SDS011;43896;48.178;11.578;2023-05-07T12:30:38;5.18;;;1.90;;
58091;SDS011;43896;48.178;11.578;2023-05-07T12:33:04;2.83;;;1.80;;
58091;SDS011;43896;48.178;11.578;2023-05-07T12:35:30;3.70;;;1.80;;
58091;SDS011;43896;48.178;11.578;2023-05-07T12:37:57;3.97;;;1.90;;
58091;SDS011;43896;48.178;11.578;2023-05-07T12:40:25;3.92;;;2.00;;
58091;SDS011;43896;48.178;11.578;2023-05-07T12:43:01;3.38;;;1.80;;
58091;SDS011;43896;48.178;11.578;2023-05-07T12:45:26;3.92;;;2.03;;
58091;SDS011;43896;48.178;11.578;2023-05-07T12:47:52;3.78;;;1.83;;
58091;SDS011;43896;48.178;11.578;2023-05-07T12:50:17;3.83;;;1.80;;
58091;SDS011;43896;48.178;11.578;2023-05-07T12:52:47;3.90;;;1.70;;
58091;SDS011;43896;48.178;11.578;2023-05-07T12:55:16;2.65;;;1.50;;
58091;SDS011;43896;48.178;11.578;2023-05-07T12:57:42;3.55;;;1.60;;
58091;SDS011;43896;48.178;11.578;2023-05-07T13:00:10;4.67;;;1.73;;
58091;SDS011;43896;48.178;11.578;2023-05-07T13:02:40;2.83;;;1.60;;
58091;SDS011;43896;48.178;11.578;2023-05-07T13:05:09;2.28;;;1.40;;
58091;SDS011;43896;48.178;11.578;2023-05-07T13:07:34;4.15;;;1.98;;
58091;SDS011;43896;48.178;11.578;2023-05-07T13:09:59;3.75;;;1.50;;
58091;SDS011;43896;48.178;11.578;2023-05-07T13:12:25;2.92;;;1.48;;
58091;SDS011;43896;48.178;11.578;2023-05-07T13:14:50;3.15;;;1.38;;
58091;SDS011;43896;48.178;11.578;2023-05-07T13:17:15;3.47;;;1.60;;
58091;SDS011;43896;48.178;11.578;2023-05-07T13:19:41;3.03;;;1.60;;
58091;SDS011;43896;48.178;11.578;2023-05-07T13:22:06;2.95;;;1.55;;
58091;SDS011;43896;48.178;11.578;2023-05-07T13:24:32;4.13;;;1.60;;
58091;SDS011;43896;48.178;11.578;2023-05-07T13:26:57;2.80;;;1.50;;
58091;SDS011;43896;48.178;11.578;2023-05-07T13:29:22;3.58;;;1.33;;
58091;SDS011;43896;48.178;11.578;2023-05-07T13:31:56;3.33;;;1.88;;
58091;SDS011;43896;48.178;11.578;2023-05-07T13:34:22;4.40;;;2.13;;
58091;SDS011;43896;48.178;11.578;2023-05-07T13:36:47;4.22;;;2.10;;
58091;SDS011;43896;48.178;11.578;2023-05-07T13:39:13;3.78;;;2.00;;
58091;SDS011;43896;48.178;11.578;2023-05-07T13:41:38;3.95;;;2.30;;
58091;SDS011;43896;48.178;11.578;2023-05-07T13:44:03;4.25;;;2.20;;
58091;SDS011;43896;48.178;11.578;2023-05-07T13:46:29;4.72;;;2.10;;
58091;SDS011;43896;48.178;11.578;2023-05-07T13:48:54;3.42;;;2.35;;
58091;SDS011;43896;48.178;11.578;2023-05-07T13:51:20;5.00;;;2.75;;
58091;SDS011;43896;48.178;11.578;2023-05-07T13:53:46;4.43;;;2.47;;
58091;SDS011;43896;48.178;11.578;2023-05-07T13:56:11;5.38;;;2.10;;
58091;SDS011;43896;48.178;11.578;2023-05-07T13:58:37;3.20;;;1.90;;
58091;SDS011;43896;48.178;11.578;2023-05-07T14:01:02;3.33;;;2.13;;
58091;SDS011;43896;48.178;11.578;2023-05-07T14:03:28;3.22;;;1.90;;
58091;SDS011;43896;48.178;11.578;2023-05-07T14:05:53;4.93;;;2.38;;
58091;SDS011;43896;48.178;11.578;2023-05-07T14:08:18;4.07;;;2.25;;
58091;SDS011;43896;48.178;11.578;2023-05-07T14:10:45;4.45;;;2.45;;
58091;SDS011;43896;48.178;11.578;2023-05-07T14:13:11;4.32;;;2.22;;
58091;SDS011;43896;48.178;11.578;2023-05-07T14:15:36;3.90;;;2.47;;
58091;SDS011;43896;48.178;11.578;2023-05-07T14:18:02;5.05;;;2.28;;
58091;SDS011;43896;48.178;11.578;2023-05-07T14:20:28;4.00;;;2.00;;
58091;SDS011;43896;48.178;11.578;2023-05-07T14:22:55;5.13;;;2.35;;
58091;SDS011;43896;48.178;11.578;2023-05-07T14:25:20;7.15;;;2.53;;
58091;SDS011;43896;48.178;11.578;2023-05-07T14:27:46;5.32;;;2.35;;
58091;SDS011;43896;48.178;11.578;2023-05-07T14:30:11;4.82;;;2.80;;
58091;SDS011;43896;48.178;11.578;2023-05-07T14:32:37;4.97;;;2.80;;
58091;SDS011;43896;48.178;11.578;2023-05-07T14:35:02;4.03;;;2.67;;
58091;SDS011;43896;48.178;11.578;2023-05-07T14:37:28;4.45;;;2.58;;
58091;SDS011;43896;48.178;11.578;2023-05-07T14:39:53;7.38;;;3.60;;
58091;SDS011;43896;48.178;11.578;2023-05-07T14:42:19;5.60;;;2.88;;
58091;SDS011;43896;48.178;11.578;2023-05-07T14:44:44;4.32;;;2.80;;
58091;SDS011;43896;48.178;11.578;2023-05-07T14:47:10;4.55;;;2.70;;
58091;SDS011;43896;48.178;11.578;2023-05-07T14:49:35;7.20;;;3.53;;
58091;SDS011;43896;48.178;11.578;2023-05-07T14:52:01;7.65;;;4.30;;
58091;SDS011;43896;48.178;11.578;2023-05-07T14:54:27;4.60;;;2.88;;
58091;SDS011;43896;48.178;11.578;2023-05-07T14:56:52;4.63;;;2.90;;
58091;SDS011;43896;48.178;11.578;2023-05-07T14:59:18;4.43;;;2.35;;
58091;SDS011;43896;48.178;11.578;2023-05-07T15:01:46;5.40;;;2.80;;
58091;SDS011;43896;48.178;11.578;2023-05-07T15:04:11;7.22;;;3.60;;
58091;SDS011;43896;48.178;11.578;2023-05-07T15:06:37;4.82;;;2.72;;
58091;SDS011;43896;48.178;11.578;2023-05-07T15:09:02;5.07;;;2.58;;
58091;SDS011;43896;48.178;11.578;2023-05-07T15:11:28;6.22;;;2.63;;
58091;SDS011;43896;48.178;11.578;2023-05-07T15:13:53;4.25;;;2.42;;
58091;SDS011;43896;48.178;11.578;2023-05-07T15:16:19;5.07;;;2.78;;
58091;SDS011;43896;48.178;11.578;2023-05-07T15:18:45;4.53;;;2.53;;